createdAt,value
2022-11-12T00:00:25.501Z,101140.22
2022-11-12T00:02:58.204Z,101137.44
2022-11-12T00:05:31.102Z,101139.59
2022-11-12T00:08:03.187Z,101137.03
2022-11-12T00:10:36.194Z,101138.03
2022-11-12T00:13:08.839Z,101132.66
2022-11-12T00:15:41.474Z,101129.81
2022-11-12T00:18:14.218Z,101139.25
2022-11-12T00:20:46.874Z,101132.66
2022-11-12T00:23:19.516Z,101131.53
2022-11-12T00:25:59.218Z,101120.00
2022-11-12T00:28:37.402Z,101121.16
2022-11-12T00:31:12.115Z,101119.28
2022-11-12T00:33:46.769Z,101113.75
2022-11-12T00:36:19.377Z,101115.38
2022-11-12T00:38:51.019Z,101112.72
2022-11-12T00:41:20.234Z,101110.22
2022-11-12T00:43:52.060Z,101112.63
2022-11-12T00:46:21.111Z,101111.50
2022-11-12T00:48:53.838Z,101114.03
2022-11-12T00:51:26.780Z,101114.22
2022-11-12T00:53:58.573Z,101106.13
2022-11-12T00:56:35.382Z,101108.28
2022-11-12T00:59:07.527Z,101117.13
2022-11-12T01:01:40.195Z,101112.69
2022-11-12T01:04:13.545Z,101114.97
2022-11-12T01:06:46.737Z,101114.19
2022-11-12T01:09:19.223Z,101107.47
2022-11-12T01:11:51.806Z,101105.03
2022-11-12T01:14:23.587Z,101104.09
2022-11-12T01:16:55.362Z,101106.69
2022-11-12T01:19:27.926Z,101109.09
2022-11-12T01:21:59.771Z,101108.00
2022-11-12T01:24:32.461Z,101102.88
2022-11-12T01:27:05.080Z,101100.03
2022-11-12T01:29:37.709Z,101109.00
2022-11-12T01:32:10.341Z,101117.38
2022-11-12T01:34:42.927Z,101111.56
2022-11-12T01:37:15.511Z,101116.69
2022-11-12T01:39:48.209Z,101112.06
2022-11-12T01:42:20.784Z,101111.94
2022-11-12T01:44:56.115Z,101104.94
2022-11-12T01:47:36.454Z,101106.94
2022-11-12T01:50:16.077Z,101105.94
2022-11-12T01:53:01.918Z,101102.53
2022-11-12T01:55:40.904Z,101099.81
2022-11-12T01:58:18.603Z,101099.59
2022-11-12T02:00:52.653Z,101090.66
2022-11-12T02:03:28.560Z,101085.13
2022-11-12T02:06:11.283Z,101087.88
2022-11-12T02:08:44.876Z,101092.16
2022-11-12T02:11:22.685Z,101079.03
2022-11-12T02:14:03.666Z,101080.66
2022-11-12T02:16:44.578Z,101080.31
2022-11-12T02:19:17.749Z,101082.56
2022-11-12T02:21:47.335Z,101077.59
2022-11-12T02:24:16.672Z,101071.44
2022-11-12T02:26:52.440Z,101075.41
2022-11-12T02:29:22.952Z,101064.59
2022-11-12T02:31:51.554Z,101059.44
2022-11-12T02:34:21.080Z,101065.94
2022-11-12T02:36:50.579Z,101066.69
2022-11-12T02:39:20.039Z,101069.09
2022-11-12T02:41:49.577Z,101066.13
2022-11-12T02:44:19.122Z,101063.81
2022-11-12T02:46:48.663Z,101066.31
2022-11-12T02:49:18.133Z,101066.75
2022-11-12T02:51:47.576Z,101054.34
2022-11-12T02:54:17.050Z,101057.09
2022-11-12T02:56:46.515Z,101066.16
2022-11-12T02:59:16.000Z,101071.50
2022-11-12T03:01:45.509Z,101078.63
2022-11-12T03:04:14.975Z,101079.38
2022-11-12T03:06:44.434Z,101084.81
2022-11-12T03:09:14.131Z,101091.47
2022-11-12T03:11:43.579Z,101099.97
2022-11-12T03:14:13.039Z,101097.03
2022-11-12T03:16:42.471Z,101097.28
2022-11-12T03:19:11.925Z,101110.50
2022-11-12T03:21:40.484Z,101097.22
2022-11-12T03:24:09.984Z,101099.59
2022-11-12T03:26:39.500Z,101104.13
2022-11-12T03:29:08.066Z,101099.38
2022-11-12T03:31:38.432Z,101102.59
2022-11-12T03:34:08.035Z,101100.88
2022-11-12T03:36:37.505Z,101101.06
2022-11-12T03:39:07.164Z,101092.69
2022-11-12T03:41:36.604Z,101095.25
2022-11-12T03:44:06.103Z,101089.22
2022-11-12T03:46:38.888Z,101084.25
2022-11-12T03:49:10.964Z,101087.34
2022-11-12T03:51:40.443Z,101088.97
2022-11-12T03:54:10.007Z,101092.38
2022-11-12T03:56:39.028Z,101096.66
2022-11-12T03:59:08.562Z,101097.53
2022-11-12T04:01:38.641Z,101098.06
2022-11-12T04:04:09.780Z,101097.03
2022-11-12T04:06:57.844Z,101104.44
2022-11-12T04:09:27.377Z,101102.13
2022-11-12T04:12:16.793Z,101089.66
2022-11-12T04:14:46.210Z,101098.34
2022-11-12T04:17:34.121Z,101094.72
2022-11-12T04:20:22.560Z,101093.69
2022-11-12T04:22:52.036Z,101092.59
2022-11-12T04:25:39.928Z,101098.69
2022-11-12T04:28:09.405Z,101098.88
2022-11-12T04:30:38.831Z,101099.91
2022-11-12T04:33:08.318Z,101107.72
2022-11-12T04:35:37.851Z,101107.56
2022-11-12T04:38:07.334Z,101095.75
2022-11-12T04:40:55.406Z,101093.94
2022-11-12T04:43:43.489Z,101091.44
2022-11-12T04:46:13.017Z,101099.56
2022-11-12T04:48:42.514Z,101098.53
2022-11-12T04:51:31.344Z,101102.31
2022-11-12T04:54:00.831Z,101102.31
2022-11-12T04:56:30.362Z,101087.94
2022-11-12T04:58:59.867Z,101086.22
2022-11-12T05:01:29.381Z,101089.66
2022-11-12T05:03:58.875Z,101088.56
2022-11-12T05:06:57.651Z,101088.75
2022-11-12T05:09:29.678Z,101090.59
2022-11-12T05:11:59.181Z,101087.22
2022-11-12T05:14:29.614Z,101091.44
2022-11-12T05:16:57.623Z,101092.31
2022-11-12T05:19:27.191Z,101096.78
2022-11-12T05:22:05.722Z,101091.47
2022-11-12T05:24:43.110Z,101091.00
2022-11-12T05:27:20.649Z,101089.19
2022-11-12T05:29:50.144Z,101090.84
2022-11-12T05:32:19.733Z,101100.69
2022-11-12T05:34:49.468Z,101098.94
2022-11-12T05:37:17.537Z,101098.84
2022-11-12T05:39:47.100Z,101101.38
2022-11-12T05:42:16.707Z,101106.88
2022-11-12T05:44:46.280Z,101096.69
2022-11-12T05:47:16.789Z,101112.06
2022-11-12T05:49:46.312Z,101101.16
2022-11-12T05:52:15.796Z,101118.56
2022-11-12T05:54:45.244Z,101112.91
2022-11-12T05:57:14.695Z,101123.03
2022-11-12T05:59:44.165Z,101124.44
2022-11-12T06:02:13.797Z,101127.81
2022-11-12T06:04:43.407Z,101134.34
2022-11-12T06:07:12.910Z,101129.59
2022-11-12T06:09:41.542Z,101144.53
2022-11-12T06:12:10.955Z,101146.41
2022-11-12T06:14:40.438Z,101149.00
2022-11-12T06:17:09.920Z,101143.63
2022-11-12T06:19:39.401Z,101153.38
2022-11-12T06:22:08.143Z,101159.00
2022-11-12T06:24:37.647Z,101164.50
2022-11-12T06:27:07.137Z,101160.59
2022-11-12T06:29:36.508Z,101159.81
2022-11-12T06:32:05.987Z,101164.88
2022-11-12T06:34:35.473Z,101167.31
2022-11-12T06:37:04.883Z,101178.53
2022-11-12T06:39:34.304Z,101187.94
2022-11-12T06:42:04.020Z,101186.97
2022-11-12T06:44:33.439Z,101178.47
2022-11-12T06:47:03.383Z,101187.25
2022-11-12T06:49:33.201Z,101184.66
2022-11-12T06:52:02.968Z,101180.41
2022-11-12T06:54:31.805Z,101190.50
2022-11-12T06:57:01.304Z,101189.53
2022-11-12T06:59:30.754Z,101186.25
2022-11-12T07:01:59.475Z,101186.44
2022-11-12T07:04:29.001Z,101189.00
2022-11-12T07:06:58.490Z,101189.16
2022-11-12T07:09:27.185Z,101182.06
2022-11-12T07:11:55.951Z,101191.06
2022-11-12T07:14:25.377Z,101189.81
2022-11-12T07:16:55.130Z,101196.78
2022-11-12T07:19:24.554Z,101200.38
2022-11-12T07:21:54.027Z,101199.28
2022-11-12T07:24:23.461Z,101196.28
2022-11-12T07:26:52.112Z,101182.94
2022-11-12T07:29:42.671Z,101193.31
2022-11-12T07:32:11.053Z,101193.44
2022-11-12T07:34:40.514Z,101200.81
2022-11-12T07:37:09.956Z,101185.56
2022-11-12T07:39:39.474Z,101205.78
2022-11-12T07:42:07.285Z,101193.81
2022-11-12T07:44:36.803Z,101192.47
2022-11-12T07:47:06.396Z,101200.28
2022-11-12T07:49:35.043Z,101202.00
2022-11-12T07:52:04.783Z,101207.16
2022-11-12T07:54:34.274Z,101203.25
2022-11-12T07:57:03.188Z,101201.69
2022-11-12T07:59:31.828Z,101206.28
2022-11-12T08:02:01.428Z,101210.41
2022-11-12T08:04:31.153Z,101209.06
2022-11-12T08:07:00.679Z,101208.13
2022-11-12T08:09:29.377Z,101215.34
2022-11-12T08:11:57.082Z,101220.03
2022-11-12T08:14:27.013Z,101221.66
2022-11-12T08:16:56.555Z,101229.31
2022-11-12T08:19:25.153Z,101233.22
2022-11-12T08:21:53.787Z,101226.91
2022-11-12T08:24:23.298Z,101234.16
2022-11-12T08:26:51.902Z,101235.50
2022-11-12T08:29:20.615Z,101237.06
2022-11-12T08:31:52.111Z,101235.16
2022-11-12T08:34:22.873Z,101245.16
2022-11-12T08:36:52.423Z,101239.31
2022-11-12T08:39:21.089Z,101241.31
2022-11-12T08:41:50.605Z,101249.72
2022-11-12T08:44:19.232Z,101251.41
2022-11-12T08:46:47.848Z,101255.81
2022-11-12T08:49:17.290Z,101251.34
2022-11-12T08:51:45.936Z,101251.19
2022-11-12T08:54:14.557Z,101263.97
2022-11-12T08:56:43.265Z,101257.47
2022-11-12T08:59:11.838Z,101264.47
2022-11-12T09:01:41.470Z,101264.59
2022-11-12T09:04:10.902Z,101273.06
2022-11-12T09:06:40.344Z,101274.25
2022-11-12T09:09:10.902Z,101272.34
2022-11-12T09:11:39.543Z,101281.66
2022-11-12T09:14:08.957Z,101285.19
2022-11-12T09:16:38.382Z,101296.72
2022-11-12T09:19:07.055Z,101291.19
2022-11-12T09:21:36.110Z,101289.75
2022-11-12T09:24:05.080Z,101280.13
2022-11-12T09:26:34.459Z,101279.56
2022-11-12T09:29:03.073Z,101287.56
2022-11-12T09:31:32.480Z,101279.72
2022-11-12T09:34:01.874Z,101284.75
2022-11-12T09:36:34.593Z,101283.53
2022-11-12T09:39:06.876Z,101287.00
2022-11-12T09:41:42.467Z,101286.81
2022-11-12T09:44:24.437Z,101295.88
2022-11-12T09:47:12.606Z,101291.56
2022-11-12T09:50:28.255Z,101292.97
2022-11-12T09:53:44.563Z,101298.78
2022-11-12T09:56:18.703Z,101305.09
2022-11-12T09:58:48.416Z,101310.16
2022-11-12T10:01:45.157Z,101308.31
2022-11-12T10:04:28.678Z,101307.88
2022-11-12T10:07:11.958Z,101304.75
2022-11-12T10:10:10.654Z,101300.03
2022-11-12T10:13:16.140Z,101305.53
2022-11-12T10:16:19.764Z,101290.91
2022-11-12T10:19:23.656Z,101291.06
2022-11-12T10:22:19.227Z,101289.56
2022-11-12T10:24:49.673Z,101285.50
2022-11-12T10:27:38.214Z,101284.44
2022-11-12T10:30:21.428Z,101286.09
2022-11-12T10:32:52.949Z,101276.94
2022-11-12T10:35:24.568Z,101260.78
2022-11-12T10:38:14.503Z,101265.50
2022-11-12T10:40:43.993Z,101264.53
2022-11-12T10:43:19.758Z,101272.38
2022-11-12T10:45:51.040Z,101274.25
2022-11-12T10:48:35.738Z,101272.53
2022-11-12T10:51:27.071Z,101282.41
2022-11-12T10:53:56.714Z,101278.44
2022-11-12T10:56:31.285Z,101276.81
2022-11-12T10:59:25.715Z,101267.72
2022-11-12T11:02:01.259Z,101278.03
2022-11-12T11:04:36.682Z,101271.81
2022-11-12T11:07:25.194Z,101248.31
2022-11-12T11:10:00.680Z,101272.25
2022-11-12T11:12:35.093Z,101265.03
2022-11-12T11:15:22.002Z,101271.75
2022-11-12T11:17:53.876Z,101257.59
2022-11-12T11:20:44.612Z,101267.22
2022-11-12T11:23:37.542Z,101261.97
2022-11-12T11:27:17.096Z,101270.22
2022-11-12T11:30:21.810Z,101256.28
2022-11-12T11:33:43.043Z,101267.72
2022-11-12T11:36:48.581Z,101256.03
2022-11-12T11:40:00.368Z,101260.16
2022-11-12T11:43:43.993Z,101251.50
2022-11-12T11:46:44.234Z,101256.03
2022-11-12T11:49:53.682Z,101253.31
2022-11-12T11:52:46.331Z,101256.97
2022-11-12T11:55:35.545Z,101262.69
2022-11-12T11:58:39.783Z,101255.25
2022-11-12T12:01:30.280Z,101246.41
2022-11-12T12:04:21.731Z,101249.88
2022-11-12T12:07:31.006Z,101245.50
2022-11-12T12:14:14.761Z,101235.03
2022-11-12T12:17:31.715Z,101239.06
2022-11-12T12:20:49.196Z,101228.25
2022-11-12T12:23:48.680Z,101225.13
2022-11-12T12:26:37.493Z,101226.72
2022-11-12T12:29:49.388Z,101229.25
2022-11-12T12:32:41.506Z,101220.56
2022-11-12T12:35:39.433Z,101221.53
2022-11-12T12:38:23.804Z,101215.28
2022-11-12T12:41:42.639Z,101219.69
2022-11-12T12:44:12.585Z,101214.75
2022-11-12T12:46:59.305Z,101214.16
2022-11-12T12:49:37.634Z,101212.78
2022-11-12T12:52:06.783Z,101211.59
2022-11-12T12:54:37.188Z,101211.59
2022-11-12T12:57:09.981Z,101215.31
2022-11-12T12:59:39.441Z,101210.94
2022-11-12T13:02:23.110Z,101213.44
2022-11-12T13:04:58.374Z,101220.53
2022-11-12T13:07:45.346Z,101218.91
2022-11-12T13:10:42.567Z,101218.13
2022-11-12T13:13:19.996Z,101227.88
2022-11-12T13:15:54.067Z,101230.84
2022-11-12T13:18:52.378Z,101222.88
2022-11-12T13:21:22.292Z,101225.16
2022-11-12T13:24:12.399Z,101225.81
2022-11-12T13:27:00.040Z,101226.97
2022-11-12T13:29:29.461Z,101205.31
2022-11-12T13:32:34.116Z,101221.31
2022-11-12T13:35:20.837Z,101219.34
2022-11-12T13:38:08.655Z,101220.88
2022-11-12T13:41:17.939Z,101208.25
2022-11-12T13:43:47.876Z,101230.34
2022-11-12T13:46:34.088Z,101231.34
2022-11-12T13:49:15.442Z,101234.56
2022-11-12T13:51:52.164Z,101231.47
2022-11-12T13:54:37.659Z,101223.50
2022-11-12T13:57:25.991Z,101232.97
2022-11-12T14:00:21.936Z,101221.69
2022-11-12T14:03:07.341Z,101223.22
2022-11-12T14:05:39.474Z,101196.97
2022-11-12T14:08:30.292Z,101229.44
2022-11-12T14:11:21.216Z,101218.34
2022-11-12T14:14:17.164Z,101221.38
2022-11-12T14:17:22.248Z,101221.41
2022-11-12T14:20:18.891Z,101223.53
2022-11-12T14:22:48.292Z,101216.78
2022-11-12T14:25:23.417Z,101217.88
2022-11-12T14:27:57.358Z,101218.94
2022-11-12T14:30:32.250Z,101213.66
2022-11-12T14:33:10.543Z,101217.69
2022-11-12T14:35:40.796Z,101208.53
2022-11-12T14:38:10.100Z,101207.69
2022-11-12T14:40:49.388Z,101211.25
2022-11-12T14:43:45.806Z,101216.44
2022-11-12T14:46:48.813Z,101210.56
2022-11-12T14:49:46.696Z,101215.28
2022-11-12T14:52:33.240Z,101210.72
2022-11-12T14:55:13.696Z,101210.56
2022-11-12T14:57:43.817Z,101211.09
2022-11-12T15:00:53.275Z,101208.69
2022-11-12T15:03:30.990Z,101206.28
2022-11-12T15:06:03.347Z,101208.66
2022-11-12T15:08:40.294Z,101220.94
2022-11-12T15:11:35.621Z,101223.38
2022-11-12T15:14:05.804Z,101226.72
2022-11-12T15:16:36.849Z,101227.41
2022-11-12T15:19:25.991Z,101211.91
2022-11-12T15:22:01.367Z,101218.28
2022-11-12T15:24:37.197Z,101210.91
2022-11-12T15:27:43.419Z,101216.06
2022-11-12T15:30:26.321Z,101212.06
2022-11-12T15:33:22.454Z,101218.91
2022-11-12T15:36:02.633Z,101219.75
2022-11-12T15:38:36.116Z,101219.06
2022-11-12T15:41:06.963Z,101235.38
2022-11-12T15:43:42.949Z,101237.69
2022-11-12T15:46:17.982Z,101239.34
2022-11-12T15:48:51.437Z,101235.31
2022-11-12T15:51:23.285Z,101238.25
2022-11-12T15:53:52.712Z,101232.91
2022-11-12T15:56:22.363Z,101241.19
2022-11-12T15:58:51.011Z,101246.84
2022-11-12T16:01:20.463Z,101244.38
2022-11-12T16:03:49.933Z,101241.38
2022-11-12T16:06:19.370Z,101246.16
2022-11-12T16:08:47.069Z,101248.16
2022-11-12T16:11:45.708Z,101246.34
2022-11-12T16:14:15.655Z,101251.75
2022-11-12T16:16:44.316Z,101244.59
2022-11-12T16:19:15.171Z,101243.72
2022-11-12T16:21:43.925Z,101239.66
2022-11-12T16:24:13.444Z,101246.91
2022-11-12T16:26:43.351Z,101236.91
2022-11-12T16:29:15.035Z,101242.66
2022-11-12T16:31:44.701Z,101245.28
2022-11-12T16:34:13.289Z,101235.75
2022-11-12T16:36:43.042Z,101236.69
2022-11-12T16:39:14.317Z,101241.88
2022-11-12T16:41:42.132Z,101236.69
2022-11-12T16:44:09.886Z,101238.88
2022-11-12T16:46:44.228Z,101237.44
2022-11-12T16:49:16.374Z,101245.59
2022-11-12T16:51:44.330Z,101237.34
2022-11-12T16:54:13.884Z,101231.97
2022-11-12T16:56:43.445Z,101229.66
2022-11-12T16:59:15.805Z,101224.94
2022-11-12T17:01:45.382Z,101231.97
2022-11-12T17:04:14.877Z,101231.00
2022-11-12T17:06:44.519Z,101235.75
2022-11-12T17:09:13.144Z,101236.56
2022-11-12T17:11:42.649Z,101230.00
2022-11-12T17:14:11.226Z,101230.41
2022-11-12T17:16:40.837Z,101227.94
2022-11-12T17:19:11.187Z,101230.72
2022-11-12T17:21:40.811Z,101230.56
2022-11-12T17:24:11.266Z,101227.94
2022-11-12T17:26:41.701Z,101229.59
2022-11-12T17:29:09.547Z,101230.00
2022-11-12T17:31:39.136Z,101238.31
2022-11-12T17:34:09.625Z,101233.19
2022-11-12T17:36:43.739Z,101227.41
2022-11-12T17:39:14.749Z,101227.97
2022-11-12T17:41:44.434Z,101226.44
2022-11-12T17:44:18.605Z,101223.78
2022-11-12T17:46:48.978Z,101227.69
2022-11-12T17:49:19.481Z,101233.19
2022-11-12T17:51:49.136Z,101234.28
2022-11-12T17:54:21.707Z,101236.38
2022-11-12T17:56:51.247Z,101234.75
2022-11-12T17:59:20.851Z,101229.56
2022-11-12T18:01:52.243Z,101226.34
2022-11-12T18:04:22.444Z,101232.66
2022-11-12T18:06:53.324Z,101236.19
2022-11-12T18:09:24.756Z,101228.28
2022-11-12T18:11:56.856Z,101231.72
2022-11-12T18:14:26.501Z,101234.88
2022-11-12T18:16:54.335Z,101233.16
2022-11-12T18:19:25.336Z,101234.66
2022-11-12T18:21:57.042Z,101238.09
2022-11-12T18:24:26.629Z,101237.78
2022-11-12T18:26:56.319Z,101232.44
2022-11-12T18:29:25.912Z,101230.34
2022-11-12T18:31:55.459Z,101235.47
2022-11-12T18:34:26.897Z,101235.88
2022-11-12T18:36:58.411Z,101239.50
2022-11-12T18:39:29.776Z,101247.19
2022-11-12T18:41:58.689Z,101249.66
2022-11-12T18:44:29.215Z,101240.41
2022-11-12T18:46:57.080Z,101252.13
2022-11-12T18:49:24.878Z,101243.16
2022-11-12T18:51:52.780Z,101248.09
2022-11-12T18:54:20.609Z,101250.53
2022-11-12T18:56:51.242Z,101256.84
2022-11-12T18:59:22.055Z,101258.69
2022-11-12T19:01:50.257Z,101251.06
2022-11-12T19:04:20.981Z,101253.41
2022-11-12T19:06:51.306Z,101252.59
2022-11-12T19:09:21.887Z,101254.72
2022-11-12T19:11:53.158Z,101260.13
2022-11-12T19:14:24.609Z,101256.13
2022-11-12T19:16:54.469Z,101261.72
2022-11-12T19:19:24.086Z,101270.97
2022-11-12T19:21:53.699Z,101278.81
2022-11-12T19:24:23.309Z,101277.91
2022-11-12T19:26:51.635Z,101282.75
2022-11-12T19:29:21.202Z,101278.94
2022-11-12T19:31:51.026Z,101274.56
2022-11-12T19:34:20.588Z,101278.81
2022-11-12T19:37:00.619Z,101280.50
2022-11-12T19:39:39.597Z,101275.13
2022-11-12T19:42:09.940Z,101271.66
2022-11-12T19:44:41.759Z,101287.94
2022-11-12T19:47:11.312Z,101274.69
2022-11-12T19:49:40.911Z,101281.34
2022-11-12T19:52:12.848Z,101285.00
2022-11-12T19:54:43.265Z,101287.25
2022-11-12T19:57:12.820Z,101282.56
2022-11-12T19:59:42.417Z,101289.19
2022-11-12T20:02:15.133Z,101288.69
2022-11-12T20:04:44.707Z,101289.19
2022-11-12T20:07:12.548Z,101298.53
2022-11-12T20:09:42.710Z,101296.56
2022-11-12T20:12:12.309Z,101291.44
2022-11-12T20:14:40.067Z,101296.19
2022-11-12T20:17:09.652Z,101300.78
2022-11-12T20:19:39.271Z,101297.56
2022-11-12T20:22:09.085Z,101291.66
2022-11-12T20:24:38.705Z,101292.81
2022-11-12T20:27:08.273Z,101292.63
2022-11-12T20:29:37.868Z,101294.78
2022-11-12T20:32:07.526Z,101293.88
2022-11-12T20:34:37.111Z,101287.94
2022-11-12T20:37:06.661Z,101294.34
2022-11-12T20:39:38.040Z,101294.53
2022-11-12T20:42:09.465Z,101284.81
2022-11-12T20:44:37.264Z,101280.41
2022-11-12T20:47:06.880Z,101287.84
2022-11-12T20:49:38.216Z,101287.94
2022-11-12T20:52:07.879Z,101285.50
2022-11-12T20:54:38.375Z,101277.97
2022-11-12T20:57:06.172Z,101278.78
2022-11-12T20:59:34.164Z,101283.50
2022-11-12T21:02:02.067Z,101273.97
2022-11-12T21:04:29.850Z,101277.38
2022-11-12T21:07:04.882Z,101275.03
2022-11-12T21:09:35.956Z,101277.53
2022-11-12T21:12:06.969Z,101283.50
2022-11-12T21:14:37.478Z,101288.13
2022-11-12T21:17:07.204Z,101283.19
2022-11-12T21:19:36.770Z,101281.44
2022-11-12T21:22:06.412Z,101284.13
2022-11-12T21:24:36.007Z,101285.75
2022-11-12T21:27:05.600Z,101284.72
2022-11-12T21:29:34.675Z,101286.94
2022-11-12T21:32:04.710Z,101285.59
2022-11-12T21:34:35.167Z,101282.66
2022-11-12T21:37:04.745Z,101281.00
2022-11-12T21:39:34.333Z,101278.47
2022-11-12T21:42:04.005Z,101273.28
2022-11-12T21:44:33.577Z,101281.22
2022-11-12T21:47:03.082Z,101275.88
2022-11-12T21:49:32.656Z,101272.50
2022-11-12T21:52:02.207Z,101281.47
2022-11-12T21:54:31.889Z,101276.06
2022-11-12T21:57:01.466Z,101279.44
2022-11-12T21:59:31.025Z,101277.38
2022-11-12T22:02:00.795Z,101277.31
2022-11-12T22:04:30.540Z,101274.84
2022-11-12T22:07:00.142Z,101283.75
2022-11-12T22:09:29.772Z,101273.22
2022-11-12T22:11:59.365Z,101276.09
2022-11-12T22:14:28.948Z,101273.44
2022-11-12T22:16:58.510Z,101281.28
2022-11-12T22:19:28.077Z,101280.66
2022-11-12T22:21:58.436Z,101275.78
2022-11-12T22:24:28.003Z,101277.09
2022-11-12T22:26:55.778Z,101280.50
2022-11-12T22:29:25.336Z,101275.38
2022-11-12T22:31:54.967Z,101240.31
2022-11-12T22:34:24.568Z,101272.13
2022-11-12T22:36:54.193Z,101272.06
2022-11-12T22:39:23.741Z,101268.00
2022-11-12T22:41:53.302Z,101272.53
2022-11-12T22:44:22.889Z,101276.31
2022-11-12T22:46:52.506Z,101271.72
2022-11-12T22:49:22.916Z,101274.19
2022-11-12T22:51:52.522Z,101270.28
2022-11-12T22:54:22.048Z,101253.66
2022-11-12T22:56:51.656Z,101285.53
2022-11-12T22:59:21.211Z,101281.19
2022-11-12T23:01:50.951Z,101279.91
2022-11-12T23:04:18.772Z,101275.91
2022-11-12T23:06:46.598Z,101273.75
2022-11-12T23:09:17.538Z,101280.00
2022-11-12T23:11:47.088Z,101278.47
2022-11-12T23:14:16.679Z,101262.16
2022-11-12T23:16:46.240Z,101274.19
2022-11-12T23:19:15.916Z,101276.19
2022-11-12T23:21:45.505Z,101273.31
2022-11-12T23:24:15.132Z,101274.78
2022-11-12T23:26:44.692Z,101276.56
2022-11-12T23:29:14.465Z,101271.13
2022-11-12T23:31:44.251Z,101267.50
2022-11-12T23:34:13.867Z,101284.34
2022-11-12T23:36:43.398Z,101272.59
2022-11-12T23:39:12.967Z,101273.41
2022-11-12T23:41:43.465Z,101283.13
2022-11-12T23:44:13.137Z,101278.84
2022-11-12T23:46:42.699Z,101276.06
2022-11-12T23:49:12.270Z,101278.97
2022-11-12T23:51:41.912Z,101280.56
2022-11-12T23:54:11.686Z,101284.88
2022-11-12T23:56:41.247Z,101283.09
2022-11-12T23:59:10.791Z,101281.28
